Flight Track Log - Related Links

Times and Time Zones

All times are in EDT time to prevent confusion due to time zone crossing. See the THY2454 flight status page for this flight to view local times or setup timezone preferences in your user account.

Time Position Orientation Groundspeed Altitude Reporting Facility
EDT Latitude Longitude Course Direction KTS MPH feet Rate Location/Type
Tue 11:34:00 PM 40.6631 29.3792 126° Southeast  Level Estimated
Tue 11:35:00 PM 40.6000 29.4902 127° Southeast  Level Estimated
Tue 11:36:00 PM 40.5368 29.6009 127° Southeast  Level Estimated
Tue 11:37:00 PM 40.4735 29.7115 127° Southeast  Level Estimated
Tue 11:38:00 PM 40.4100 29.8218 127° Southeast  Level Estimated
Tue 11:39:00 PM 40.3465 29.9320 127° Southeast  Level Estimated
Tue 11:40:00 PM 40.2829 30.0419 127° Southeast  Level Estimated
Tue 11:41:00 PM 40.2192 30.1516 127° Southeast  Level Estimated
Tue 11:42:00 PM 40.1554 30.2612 127° Southeast  Level Estimated
Tue 11:43:00 PM 40.0914 30.3705 127° Southeast  Level Estimated
Tue 11:44:00 PM 40.0274 30.4796 127° Southeast  Level Estimated
Tue 11:45:00 PM 39.9633 30.5885 128° Southeast  Level Estimated
Tue 11:46:00 PM 39.8991 30.6972 128° Southeast  Level Estimated
Tue 11:47:00 PM 39.8347 30.8057 128° Southeast  Level Estimated
Tue 11:48:00 PM 39.7703 30.9140 128° Southeast  Level Estimated
Tue 11:49:00 PM 39.7058 31.0221 128° Southeast  Level Estimated
Tue 11:50:00 PM 39.6411 31.1300 128° Southeast  Level Estimated
Tue 11:51:00 PM 39.5764 31.2377 128° Southeast  Level Estimated
Tue 11:52:00 PM 39.5116 31.3452 128° Southeast  Level Estimated
Tue 11:53:00 PM 39.4466 31.4524 128° Southeast  Level Estimated
Tue 11:54:00 PM 39.3816 31.5595 128° Southeast  Level Estimated
Tue 11:55:00 PM 39.3165 31.6664 128° Southeast  Level Estimated
Tue 11:56:00 PM 39.2512 31.7731 128° Southeast  Level Estimated
Tue 11:57:00 PM 39.1859 31.8796 128° Southeast  Level Estimated
Tue 11:58:00 PM 39.1205 31.9859 128° Southeast  Level Estimated
Tue 11:59:00 PM 39.0550 32.0920 128° Southeast  Level Estimated
Wed 12:00:00 AM 38.9894 32.1979 129° Southeast  Level Estimated
Wed 12:01:00 AM 38.9237 32.3036 129° Southeast  Level Estimated
Wed 12:02:00 AM 38.8579 32.4091 129° Southeast  Level Estimated
Wed 12:03:00 AM 38.7920 32.5144 129° Southeast  Level Estimated
Wed 12:04:00 AM 38.7260 32.6195 129° Southeast  Level Estimated
Wed 12:05:00 AM 38.6599 32.7245 129° Southeast  Level Estimated
Wed 12:06:00 AM 38.5937 32.8292 129° Southeast  Level Estimated
Wed 12:07:00 AM 38.5274 32.9337 129° Southeast  Level Estimated
Wed 12:08:00 AM 38.4611 33.0381 129° Southeast  Level Estimated
Wed 12:09:00 AM 38.3946 33.1422 129° Southeast  Level Estimated
Wed 12:10:00 AM 38.3280 33.2462 129° Southeast  Level Estimated
Wed 12:11:00 AM 38.2614 33.3499 129° Southeast  Level Estimated
Wed 12:12:00 AM 38.1947 33.4535 129° Southeast  Level Estimated
Wed 12:13:00 AM 38.1279 33.5569 129° Southeast  Level Estimated
Wed 12:14:00 AM 38.0610 33.6601 129° Southeast  Level Estimated
Wed 12:15:00 AM 37.9939 33.7631 130° Southeast  Level Estimated
Wed 12:16:00 AM 37.9268 33.8660 130° Southeast  Level Estimated
Wed 12:17:00 AM 37.8597 33.9686 130° Southeast  Level Estimated
Wed 12:18:00 AM 37.7924 34.0710 130° Southeast  Level Estimated
Wed 12:19:00 AM 37.7250 34.1733 130° Southeast  Level Estimated
Wed 12:20:00 AM 37.6576 34.2754 130° Southeast  Level Estimated
Wed 12:21:00 AM 37.5900 34.3773 130° Southeast  Level Estimated
Wed 12:22:00 AM 37.5224 34.4790 130° Southeast  Level Estimated
Wed 12:23:00 AM 37.4547 34.5805 130° Southeast  Level Estimated
Wed 12:24:00 AM 37.3869 34.6818 130° Southeast  Level Estimated
Wed 12:25:00 AM 37.3190 34.7830 130° Southeast  Level Estimated
Wed 12:26:00 AM 37.2510 34.8840 130° Southeast  Level Estimated
Wed 12:27:00 AM 37.1830 34.9847 130° Southeast  Level Estimated
Wed 12:28:00 AM 37.1148 35.0854 130° Southeast  Level Estimated
Wed 12:29:00 AM 37.0466 35.1858 130° Southeast  Level Estimated
Wed 12:30:00 AM 36.9822 35.2804 130° Southeast  Level Estimated
Wed 12:31:00 AM 36.9822 35.2804 202° Southwest  Level Estimated
Wed 12:32:00 AM 36.9822 35.2804 202° Southwest  Level Estimated
Wed 12:33:00 AM 36.9822 35.2804 202° Southwest  Level Estimated
Wed 12:34:00 AM 36.9822 35.2804 202° Southwest  Level Estimated
Wed 12:35:00 AM 36.9822 35.2804 202° Southwest  Level Estimated
Wed 12:36:00 AM 36.9822 35.2804 202° Southwest  Level Estimated
Wed 12:37:00 AM 36.9822 35.2804 202° Southwest  Level Estimated
Wed 12:38:00 AM 36.9822 35.2804 202° Southwest  Level Estimated
Wed 12:39:00 AM 36.9822 35.2804 202° Southwest  Level Estimated
Wed 12:40:00 AM 36.9822 35.2804 202° Southwest  Level Estimated
Wed 12:41:00 AM 36.9822 35.2804 202° Southwest  Level Estimated
Wed 12:42:00 AM 36.9822 35.2804 202° Southwest  Level Estimated
Wed 12:43:00 AM 36.9822 35.2804 202° Southwest  Level Estimated
Wed 12:44:00 AM 36.9822 35.2804 202° Southwest  Level Estimated
Wed 12:45:00 AM 36.9822 35.2804 202° Southwest  Level Estimated
Wed 12:46:00 AM 36.9822 35.2804 202° Southwest  Level Estimated

Login

Don't have an account? Register now (free) for customized features, flight alerts, and more!